createdAt,value
2018-03-06T00:01:52.884Z,74.21
2018-03-06T00:04:20.652Z,74.18
2018-03-06T00:06:48.364Z,73.99
2018-03-06T00:09:16.177Z,73.96
2018-03-06T00:11:43.892Z,74.14
2018-03-06T00:14:11.607Z,74.22
2018-03-06T00:16:39.340Z,74.74
2018-03-06T00:19:07.055Z,74.87
2018-03-06T00:21:34.904Z,75.17
2018-03-06T00:24:02.621Z,75.37
2018-03-06T00:26:30.433Z,75.78
2018-03-06T00:28:58.140Z,75.54
2018-03-06T00:31:25.880Z,75.55
2018-03-06T00:33:53.600Z,75.33
2018-03-06T00:36:21.393Z,75.05
2018-03-06T00:38:49.105Z,75.04
2018-03-06T00:41:16.917Z,74.94
2018-03-06T00:43:44.667Z,75.01
2018-03-06T00:46:12.388Z,74.99
2018-03-06T00:48:40.120Z,75.39
2018-03-06T00:51:07.844Z,75.62
2018-03-06T00:53:35.580Z,75.74
2018-03-06T00:56:03.297Z,76.09
2018-03-06T00:58:31.040Z,76.10
2018-03-06T01:00:58.759Z,76.27
2018-03-06T01:03:26.499Z,76.23
2018-03-06T01:05:54.220Z,76.22
2018-03-06T01:08:22.048Z,76.44
2018-03-06T01:10:49.747Z,76.55
2018-03-06T01:13:17.468Z,76.67
2018-03-06T01:15:45.213Z,76.81
2018-03-06T01:18:12.924Z,77.06
2018-03-06T01:20:40.665Z,77.39
2018-03-06T01:23:08.422Z,77.61
2018-03-06T01:25:36.208Z,77.42
2018-03-06T01:28:03.908Z,77.05
2018-03-06T01:30:31.711Z,76.67
2018-03-06T01:32:59.497Z,76.39
2018-03-06T01:35:27.348Z,76.25
2018-03-06T01:37:55.070Z,76.24
2018-03-06T01:40:22.785Z,76.20
2018-03-06T01:42:50.544Z,76.17
2018-03-06T01:45:18.402Z,76.32
2018-03-06T01:47:46.144Z,76.45
2018-03-06T01:50:13.868Z,76.92
2018-03-06T01:52:41.703Z,77.02
2018-03-06T01:55:09.411Z,77.23
2018-03-06T01:57:37.148Z,77.12
2018-03-06T02:00:04.896Z,77.15
2018-03-06T02:02:32.636Z,77.34
2018-03-06T02:05:00.428Z,77.09
2018-03-06T02:07:28.164Z,77.14
2018-03-06T02:09:55.879Z,77.42
2018-03-06T02:12:23.724Z,77.26
2018-03-06T02:14:51.440Z,77.42
2018-03-06T02:17:19.256Z,77.50
2018-03-06T02:19:46.992Z,77.44
2018-03-06T02:22:14.783Z,77.69
2018-03-06T02:24:42.517Z,77.64
2018-03-06T02:27:10.317Z,77.66
2018-03-06T02:29:38.080Z,77.47
2018-03-06T02:32:05.848Z,77.47
2018-03-06T02:34:33.706Z,77.63
2018-03-06T02:37:01.416Z,77.75
2018-03-06T02:39:29.151Z,78.14
2018-03-06T02:41:56.914Z,78.48
2018-03-06T02:44:24.652Z,78.67
2018-03-06T02:46:52.445Z,78.48
2018-03-06T02:49:20.248Z,78.54
2018-03-06T02:51:47.960Z,78.55
2018-03-06T02:54:15.664Z,78.60
2018-03-06T02:56:43.500Z,78.39
2018-03-06T02:59:11.225Z,77.96
2018-03-06T03:01:38.989Z,77.96
2018-03-06T03:04:06.798Z,78.32
2018-03-06T03:06:34.567Z,78.21
2018-03-06T03:09:02.288Z,77.82
2018-03-06T03:11:30.025Z,77.43
2018-03-06T03:13:57.743Z,77.27
2018-03-06T03:16:25.480Z,77.03
2018-03-06T03:18:53.290Z,76.87
2018-03-06T03:21:21.053Z,76.78
2018-03-06T03:23:48.814Z,76.83
2018-03-06T03:26:16.552Z,77.24
2018-03-06T03:28:45.268Z,77.43
2018-03-06T03:31:13.005Z,77.46
2018-03-06T03:33:40.806Z,77.64
2018-03-06T03:36:08.616Z,77.37
2018-03-06T03:38:36.392Z,77.04
2018-03-06T03:41:04.136Z,76.92
2018-03-06T03:43:31.848Z,76.58
2018-03-06T03:46:00.444Z,76.63
2018-03-06T03:48:28.209Z,76.60
2018-03-06T03:50:55.977Z,76.49
2018-03-06T03:53:23.736Z,76.65
2018-03-06T03:55:51.480Z,76.49
2018-03-06T03:58:19.188Z,76.60
2018-03-06T04:00:46.908Z,76.78
2018-03-06T04:03:14.697Z,76.92
2018-03-06T04:05:42.461Z,76.95
2018-03-06T04:08:10.201Z,76.76
2018-03-06T04:10:37.905Z,76.94
2018-03-06T04:13:05.642Z,77.26
2018-03-06T04:15:33.356Z,77.20
2018-03-06T04:18:01.100Z,76.94
2018-03-06T04:20:28.847Z,76.80
2018-03-06T04:22:56.603Z,76.81
2018-03-06T04:25:24.589Z,76.61
2018-03-06T04:27:52.352Z,76.58
2018-03-06T04:30:20.080Z,76.71
2018-03-06T04:32:47.885Z,76.79
2018-03-06T04:35:15.645Z,76.76
2018-03-06T04:37:43.356Z,76.77
2018-03-06T04:40:11.104Z,77.06
2018-03-06T04:42:38.816Z,76.90
2018-03-06T04:45:06.559Z,77.01
2018-03-06T04:47:34.372Z,77.03
2018-03-06T04:50:02.132Z,76.89
2018-03-06T04:52:29.855Z,77.11
2018-03-06T04:54:57.622Z,77.37
2018-03-06T04:57:25.341Z,77.94
2018-03-06T04:59:53.097Z,78.23
2018-03-06T05:02:20.837Z,78.01
2018-03-06T05:04:48.620Z,77.96
2018-03-06T05:07:16.364Z,77.80
2018-03-06T05:09:44.144Z,77.34
2018-03-06T05:12:11.885Z,77.51
2018-03-06T05:14:39.689Z,77.49
2018-03-06T05:17:07.428Z,77.53
2018-03-06T05:19:35.213Z,77.67
2018-03-06T05:22:02.943Z,77.70
2018-03-06T05:24:30.746Z,77.66
2018-03-06T05:26:58.616Z,77.71
2018-03-06T05:29:26.376Z,77.54
2018-03-06T05:31:54.145Z,77.34
2018-03-06T05:34:21.884Z,77.30
2018-03-06T05:36:50.038Z,77.49
2018-03-06T05:39:17.780Z,77.38
2018-03-06T05:41:45.620Z,77.48
2018-03-06T05:44:13.353Z,77.43
2018-03-06T05:46:41.068Z,77.52
2018-03-06T05:49:08.908Z,77.61
2018-03-06T05:51:36.612Z,78.10
2018-03-06T05:54:04.372Z,78.65
2018-03-06T05:56:32.092Z,78.49
2018-03-06T05:58:59.809Z,78.34
2018-03-06T06:01:27.552Z,78.24
2018-03-06T06:03:55.291Z,78.54
2018-03-06T06:06:23.064Z,78.83
2018-03-06T06:08:50.824Z,78.83
2018-03-06T06:11:18.685Z,78.64
2018-03-06T06:13:46.405Z,78.53
2018-03-06T06:16:14.120Z,78.49
2018-03-06T06:18:41.888Z,78.43
2018-03-06T06:21:09.605Z,78.55
2018-03-06T06:23:37.296Z,78.56
2018-03-06T06:26:05.056Z,78.47
2018-03-06T06:28:32.749Z,78.33
2018-03-06T06:31:00.461Z,78.11
2018-03-06T06:33:28.177Z,78.20
2018-03-06T06:35:55.936Z,78.21
2018-03-06T06:38:23.703Z,78.05
2018-03-06T06:40:51.464Z,78.04
2018-03-06T06:43:19.193Z,78.10
2018-03-06T06:45:47.008Z,78.09
2018-03-06T06:48:14.760Z,78.05
2018-03-06T06:50:42.480Z,78.21
2018-03-06T06:53:10.192Z,78.12
2018-03-06T06:55:37.886Z,77.88
2018-03-06T06:58:05.616Z,77.58
2018-03-06T07:00:33.385Z,77.30
2018-03-06T07:03:01.080Z,76.94
2018-03-06T07:05:28.905Z,76.69
2018-03-06T07:07:56.679Z,76.54
2018-03-06T07:10:24.409Z,76.40
2018-03-06T07:12:52.200Z,76.06
2018-03-06T07:15:19.921Z,75.67
2018-03-06T07:17:47.731Z,75.46
2018-03-06T07:20:15.509Z,75.34
2018-03-06T07:22:43.268Z,75.24
2018-03-06T07:25:11.128Z,75.23
2018-03-06T07:27:38.910Z,75.24
2018-03-06T07:30:06.762Z,75.08
2018-03-06T07:32:34.460Z,74.91
2018-03-06T07:35:02.197Z,74.93
2018-03-06T07:37:29.968Z,74.86
2018-03-06T07:39:57.721Z,74.94
2018-03-06T07:42:25.498Z,74.83
2018-03-06T07:44:53.255Z,74.66
2018-03-06T07:47:21.035Z,74.71
2018-03-06T07:49:48.793Z,74.88
2018-03-06T07:52:16.530Z,74.81
2018-03-06T07:54:44.220Z,74.60
2018-03-06T07:57:12.047Z,74.65
2018-03-06T07:59:39.752Z,74.57
2018-03-06T08:02:07.517Z,74.49
2018-03-06T08:04:35.285Z,74.41
2018-03-06T08:07:03.041Z,74.15
2018-03-06T08:09:30.859Z,74.06
2018-03-06T08:11:58.727Z,74.21
2018-03-06T08:14:26.397Z,74.12
2018-03-06T08:16:54.104Z,74.06
2018-03-06T08:19:21.819Z,73.91
2018-03-06T08:21:49.535Z,73.89
2018-03-06T08:24:17.297Z,73.82
2018-03-06T08:26:45.001Z,73.79
2018-03-06T08:29:12.819Z,73.76
2018-03-06T08:31:40.492Z,74.00
2018-03-06T08:34:08.124Z,73.46
2018-03-06T08:36:35.817Z,73.38
2018-03-06T08:39:03.453Z,73.22
2018-03-06T08:41:31.141Z,73.08
2018-03-06T08:43:58.772Z,73.04
2018-03-06T08:46:26.397Z,72.75
2018-03-06T08:48:54.028Z,72.54
2018-03-06T08:51:21.660Z,72.14
2018-03-06T08:53:49.268Z,71.62
2018-03-06T08:56:16.901Z,71.27
2018-03-06T08:58:45.448Z,71.22
2018-03-06T09:01:13.160Z,70.71
2018-03-06T09:03:40.838Z,70.25
2018-03-06T09:06:08.489Z,69.87
2018-03-06T09:08:36.152Z,69.53
2018-03-06T09:11:03.804Z,69.11
2018-03-06T09:13:31.416Z,68.84
2018-03-06T09:15:59.140Z,68.17
2018-03-06T09:18:26.800Z,67.95
2018-03-06T09:20:54.416Z,67.78
2018-03-06T09:23:22.123Z,67.26
2018-03-06T09:25:49.735Z,67.03
2018-03-06T09:28:17.369Z,66.54
2018-03-06T09:30:45.024Z,66.27
2018-03-06T09:33:12.771Z,65.60
2018-03-06T09:35:40.381Z,65.51
2018-03-06T09:38:08.104Z,64.94
2018-03-06T09:40:35.764Z,64.19
2018-03-06T09:43:03.428Z,63.94
2018-03-06T09:45:31.126Z,63.55
2018-03-06T09:47:58.952Z,63.52
2018-03-06T09:50:26.624Z,63.38
2018-03-06T09:52:54.285Z,63.22
2018-03-06T09:55:21.948Z,62.62
2018-03-06T09:57:49.713Z,62.68
2018-03-06T10:00:17.325Z,62.57
2018-03-06T10:02:44.936Z,62.18
2018-03-06T10:05:12.596Z,61.75
2018-03-06T10:07:40.212Z,61.54
2018-03-06T10:10:07.925Z,61.43
2018-03-06T10:12:35.588Z,61.59
2018-03-06T10:15:03.247Z,61.38
2018-03-06T10:17:30.916Z,60.50
2018-03-06T10:19:58.579Z,59.80
2018-03-06T10:22:26.202Z,59.60
2018-03-06T10:24:53.893Z,59.03
2018-03-06T10:27:21.564Z,58.67
2018-03-06T10:29:49.196Z,58.63
2018-03-06T10:32:16.888Z,57.74
2018-03-06T10:34:44.521Z,57.26
2018-03-06T10:37:12.218Z,57.27
2018-03-06T10:39:39.848Z,56.60
2018-03-06T10:42:07.544Z,56.49
2018-03-06T10:44:35.180Z,55.88
2018-03-06T10:47:02.800Z,55.84
2018-03-06T10:49:30.480Z,56.00
2018-03-06T10:51:58.095Z,55.50
2018-03-06T10:54:26.092Z,54.72
2018-03-06T10:56:53.720Z,54.18
2018-03-06T10:59:21.332Z,54.19
2018-03-06T11:01:48.964Z,54.42
2018-03-06T11:04:16.608Z,54.65
2018-03-06T11:06:44.367Z,54.94
2018-03-06T11:09:12.033Z,54.78
2018-03-06T11:11:39.680Z,55.11
2018-03-06T11:14:07.292Z,55.25
2018-03-06T11:16:34.924Z,55.34
2018-03-06T11:19:02.541Z,55.47
2018-03-06T11:21:30.185Z,55.57
2018-03-06T11:23:57.813Z,55.14
2018-03-06T11:26:25.472Z,55.25
2018-03-06T11:28:53.136Z,54.67
2018-03-06T11:31:20.776Z,54.55
2018-03-06T11:33:48.392Z,54.95
2018-03-06T11:36:16.028Z,54.23
2018-03-06T11:38:43.683Z,54.05
2018-03-06T11:41:11.352Z,53.98
2018-03-06T11:43:38.963Z,53.99
2018-03-06T11:46:06.585Z,54.16
2018-03-06T11:48:34.217Z,54.06
2018-03-06T11:51:01.896Z,53.78
2018-03-06T11:53:29.560Z,54.18
2018-03-06T11:55:57.242Z,54.13
2018-03-06T11:58:24.885Z,54.19
2018-03-06T12:00:52.496Z,54.42
2018-03-06T12:03:20.137Z,54.57
2018-03-06T12:05:47.773Z,54.41
2018-03-06T12:08:15.408Z,54.24
2018-03-06T12:10:43.025Z,54.26
2018-03-06T12:13:10.657Z,54.57
2018-03-06T12:15:38.273Z,54.30
2018-03-06T12:18:05.913Z,54.61
2018-03-06T12:20:33.560Z,54.42
2018-03-06T12:23:01.313Z,54.49
2018-03-06T12:25:28.975Z,53.89
2018-03-06T12:27:56.583Z,53.90
2018-03-06T12:30:24.228Z,54.24
2018-03-06T12:32:51.851Z,54.24
2018-03-06T12:35:19.511Z,53.43
2018-03-06T12:37:47.185Z,53.65
2018-03-06T12:40:14.844Z,53.32
2018-03-06T12:42:42.517Z,53.61
2018-03-06T12:45:10.169Z,53.81
2018-03-06T12:47:37.832Z,53.89
2018-03-06T12:50:05.503Z,53.80
2018-03-06T12:52:33.161Z,53.77
2018-03-06T12:55:00.873Z,53.87
2018-03-06T12:57:28.464Z,54.07
2018-03-06T12:59:56.149Z,54.15
2018-03-06T13:02:23.817Z,54.22
2018-03-06T13:04:51.428Z,54.37
2018-03-06T13:07:19.064Z,54.66
2018-03-06T13:09:46.681Z,54.57
2018-03-06T13:12:14.323Z,54.40
2018-03-06T13:14:41.936Z,54.11
2018-03-06T13:17:09.576Z,54.19
2018-03-06T13:19:37.188Z,54.10
2018-03-06T13:22:04.821Z,54.15
2018-03-06T13:24:32.562Z,54.31
2018-03-06T13:27:00.236Z,54.26
2018-03-06T13:29:27.853Z,54.21
2018-03-06T13:31:55.489Z,54.28
2018-03-06T13:34:23.099Z,54.58
2018-03-06T13:36:50.737Z,54.61
2018-03-06T13:39:18.444Z,54.41
2018-03-06T13:41:46.115Z,54.46
2018-03-06T13:44:13.752Z,54.68
2018-03-06T13:46:41.369Z,54.71
2018-03-06T13:49:09.000Z,54.35
2018-03-06T13:51:36.751Z,54.37
2018-03-06T13:54:04.424Z,54.47
2018-03-06T13:56:32.036Z,54.68
2018-03-06T13:58:59.756Z,55.00
2018-03-06T14:01:27.416Z,55.10
2018-03-06T14:03:55.168Z,55.04
2018-03-06T14:06:22.935Z,55.07
2018-03-06T14:08:50.568Z,55.31
2018-03-06T14:11:18.182Z,55.42
2018-03-06T14:13:45.828Z,55.44
2018-03-06T14:16:13.585Z,55.51
2018-03-06T14:18:41.193Z,55.67
2018-03-06T14:21:08.920Z,55.72
2018-03-06T14:23:36.584Z,55.70
2018-03-06T14:26:04.212Z,55.84
2018-03-06T14:28:31.820Z,55.83
2018-03-06T14:30:59.664Z,56.01
2018-03-06T14:33:27.336Z,55.99
2018-03-06T14:35:54.996Z,56.11
2018-03-06T14:38:22.652Z,56.17
2018-03-06T14:40:50.322Z,56.13
2018-03-06T14:43:17.956Z,56.02
2018-03-06T14:45:45.640Z,55.98
2018-03-06T14:48:13.312Z,55.96
2018-03-06T14:53:13.860Z,56.08
2018-03-06T14:55:41.526Z,56.18
2018-03-06T14:58:09.284Z,56.09
2018-03-06T15:00:37.668Z,56.19
2018-03-06T15:03:05.332Z,56.27
2018-03-06T15:05:32.977Z,56.39
2018-03-06T15:08:00.592Z,56.56
2018-03-06T15:10:28.228Z,56.57
2018-03-06T15:12:55.843Z,56.67
2018-03-06T15:15:23.541Z,56.72
2018-03-06T15:17:51.152Z,56.88
2018-03-06T15:20:18.794Z,57.14
2018-03-06T15:22:46.428Z,57.30
2018-03-06T15:25:14.092Z,57.43
2018-03-06T15:27:41.705Z,57.62
2018-03-06T15:30:09.426Z,57.78
2018-03-06T15:32:37.080Z,57.93
2018-03-06T15:35:04.692Z,58.05
2018-03-06T15:37:32.329Z,58.13
2018-03-06T15:39:59.949Z,58.24
2018-03-06T15:42:27.584Z,58.26
2018-03-06T15:44:55.197Z,58.28
2018-03-06T15:47:22.833Z,58.31
2018-03-06T15:49:50.512Z,58.33
2018-03-06T15:52:18.176Z,58.38
2018-03-06T15:54:45.792Z,58.44
2018-03-06T15:57:13.426Z,58.49
2018-03-06T15:59:41.040Z,58.56
2018-03-06T16:02:08.724Z,58.63
2018-03-06T16:04:36.343Z,58.74
2018-03-06T16:07:04.000Z,58.78
2018-03-06T16:09:31.617Z,58.81
2018-03-06T16:11:59.376Z,58.84
2018-03-06T16:14:27.042Z,58.98
2018-03-06T16:16:54.694Z,59.03
2018-03-06T16:19:22.328Z,59.06
2018-03-06T16:21:49.941Z,59.10
2018-03-06T16:24:17.593Z,59.06
2018-03-06T16:26:45.252Z,59.09
2018-03-06T16:29:12.884Z,59.14
2018-03-06T16:31:40.579Z,59.18
2018-03-06T16:34:08.240Z,59.24
2018-03-06T16:36:35.997Z,59.30
2018-03-06T16:39:03.632Z,59.35
2018-03-06T16:41:31.328Z,59.40
2018-03-06T16:43:58.992Z,59.58
2018-03-06T16:46:26.657Z,59.74
2018-03-06T16:48:54.324Z,59.96
2018-03-06T16:51:21.961Z,60.55
2018-03-06T16:53:49.575Z,60.58
2018-03-06T16:56:17.209Z,60.57
2018-03-06T16:58:44.820Z,60.56
2018-03-06T17:01:12.461Z,60.67
2018-03-06T17:03:40.073Z,60.78
2018-03-06T17:06:07.721Z,60.99
2018-03-06T17:08:35.336Z,61.20
2018-03-06T17:11:02.969Z,61.36
2018-03-06T17:13:30.640Z,61.44
2018-03-06T17:15:58.409Z,61.62
2018-03-06T17:18:26.024Z,61.72
2018-03-06T17:20:53.638Z,61.83
2018-03-06T17:23:21.276Z,61.92
2018-03-06T17:25:48.954Z,61.97
2018-03-06T17:28:16.584Z,62.03
2018-03-06T17:30:44.198Z,62.12
2018-03-06T17:33:11.940Z,62.17
2018-03-06T17:35:39.552Z,62.20
2018-03-06T17:38:07.184Z,62.33
2018-03-06T17:40:34.833Z,62.34
2018-03-06T17:43:02.492Z,62.41
2018-03-06T17:45:30.112Z,62.47
2018-03-06T17:47:57.745Z,62.75
2018-03-06T17:50:25.356Z,62.75
2018-03-06T17:52:53.005Z,62.81
2018-03-06T17:55:20.616Z,62.84
2018-03-06T17:57:48.228Z,62.88
2018-03-06T18:00:15.936Z,62.96
2018-03-06T18:02:43.552Z,63.05
2018-03-06T18:05:11.253Z,63.24
2018-03-06T18:07:38.912Z,63.41
2018-03-06T18:10:06.576Z,63.62
2018-03-06T18:12:34.243Z,63.87
2018-03-06T18:15:01.876Z,63.98
2018-03-06T18:17:29.565Z,64.09
2018-03-06T18:19:57.323Z,64.15
2018-03-06T18:22:24.932Z,64.40
2018-03-06T18:24:52.569Z,64.52
2018-03-06T18:27:20.220Z,64.51
2018-03-06T18:29:47.852Z,64.71
2018-03-06T18:32:15.552Z,64.74
2018-03-06T18:34:43.309Z,64.87
2018-03-06T18:37:10.976Z,64.97
2018-03-06T18:39:38.594Z,65.02
2018-03-06T18:42:06.411Z,65.02
2018-03-06T18:44:34.052Z,65.00
2018-03-06T18:47:01.688Z,65.00
2018-03-06T18:49:29.317Z,65.01
2018-03-06T18:51:57.045Z,65.12
2018-03-06T18:54:24.706Z,65.28
2018-03-06T18:56:52.376Z,65.37
2018-03-06T18:59:19.998Z,65.47
2018-03-06T19:05:02.776Z,65.50
2018-03-06T19:07:30.409Z,65.49
2018-03-06T19:09:58.030Z,65.58
2018-03-06T19:12:25.768Z,65.70
2018-03-06T19:14:53.384Z,65.94
2018-03-06T19:17:21.090Z,66.06
2018-03-06T19:19:48.704Z,66.12
2018-03-06T19:22:16.458Z,66.25
2018-03-06T19:24:44.180Z,66.34
2018-03-06T19:27:11.835Z,66.42
2018-03-06T19:29:39.500Z,66.53
2018-03-06T19:32:07.112Z,66.66
2018-03-06T19:34:35.086Z,66.77
2018-03-06T19:37:02.712Z,66.79
2018-03-06T19:39:30.345Z,66.83
2018-03-06T19:41:58.025Z,66.84
2018-03-06T19:44:25.733Z,66.88
2018-03-06T19:46:53.324Z,66.93
2018-03-06T19:49:21.117Z,66.89
2018-03-06T19:51:48.777Z,66.83
2018-03-06T19:54:16.413Z,66.82
2018-03-06T19:56:44.025Z,66.85
2018-03-06T19:59:11.757Z,66.89
2018-03-06T20:01:39.368Z,66.96
2018-03-06T20:04:07.092Z,67.06
2018-03-06T20:06:34.704Z,67.07
2018-03-06T20:09:02.341Z,67.14
2018-03-06T20:11:29.956Z,67.21
2018-03-06T20:13:57.644Z,67.32
2018-03-06T20:16:25.313Z,67.44
2018-03-06T20:18:58.628Z,67.53
2018-03-06T20:21:26.278Z,67.52
2018-03-06T20:23:53.921Z,67.54
2018-03-06T20:26:21.541Z,67.62
2018-03-06T20:28:49.185Z,67.64
2018-03-06T20:31:22.317Z,67.67
2018-03-06T20:33:49.973Z,67.68
2018-03-06T20:36:17.584Z,67.73
2018-03-06T20:38:50.879Z,67.79
2018-03-06T20:41:18.520Z,67.79
2018-03-06T20:43:46.185Z,67.89
2018-03-06T20:46:19.497Z,67.90
2018-03-06T20:48:47.109Z,67.93
2018-03-06T20:51:14.805Z,67.95
2018-03-06T20:53:48.140Z,68.02
2018-03-06T20:56:15.864Z,68.08
2018-03-06T20:58:43.480Z,68.15
2018-03-06T21:01:11.116Z,68.14
2018-03-06T21:03:38.757Z,68.25
2018-03-06T21:06:06.512Z,68.23
2018-03-06T21:08:34.185Z,68.22
2018-03-06T21:11:01.826Z,68.19
2018-03-06T21:13:29.505Z,68.21
2018-03-06T21:15:57.154Z,68.24
2018-03-06T21:18:25.705Z,68.24
2018-03-06T21:20:53.344Z,68.30
2018-03-06T21:23:20.972Z,68.33
2018-03-06T21:25:48.606Z,68.47
2018-03-06T21:28:16.226Z,68.53
2018-03-06T21:30:43.870Z,68.56
2018-03-06T21:33:11.484Z,68.62
2018-03-06T21:35:39.121Z,68.63
2018-03-06T21:38:06.748Z,68.71
2018-03-06T21:40:34.515Z,68.72
2018-03-06T21:43:02.172Z,68.71
2018-03-06T21:45:29.838Z,68.78
2018-03-06T21:47:57.497Z,68.79
2018-03-06T21:50:25.136Z,68.74
2018-03-06T21:52:52.753Z,68.67
2018-03-06T21:55:20.490Z,68.64
2018-03-06T21:57:48.109Z,68.64
2018-03-06T22:00:15.720Z,68.66
2018-03-06T22:02:43.352Z,68.96
2018-03-06T22:05:10.964Z,69.14
2018-03-06T22:07:38.596Z,69.50
2018-03-06T22:10:06.261Z,69.60
2018-03-06T22:12:33.924Z,69.93
2018-03-06T22:15:01.537Z,70.23
2018-03-06T22:17:29.179Z,70.34
2018-03-06T22:19:56.808Z,70.57
2018-03-06T22:22:24.472Z,70.83
2018-03-06T22:24:52.137Z,70.97
2018-03-06T22:27:19.784Z,71.38
2018-03-06T22:29:47.464Z,71.72
2018-03-06T22:32:15.101Z,72.12
2018-03-06T22:34:42.788Z,72.25
2018-03-06T22:37:10.543Z,72.49
2018-03-06T22:39:38.158Z,72.60
2018-03-06T22:42:05.773Z,72.78
2018-03-06T22:44:33.444Z,72.89
2018-03-06T22:47:01.090Z,72.96
2018-03-06T22:49:28.728Z,72.98
2018-03-06T22:51:56.428Z,72.98
2018-03-06T22:54:24.065Z,72.87
2018-03-06T22:56:51.681Z,72.79
2018-03-06T22:59:19.316Z,72.69
2018-03-06T23:01:46.933Z,72.50
2018-03-06T23:04:14.577Z,72.54
2018-03-06T23:06:42.193Z,72.69
2018-03-06T23:09:09.868Z,72.67
2018-03-06T23:11:37.523Z,72.59
2018-03-06T23:14:05.141Z,72.52
2018-03-06T23:16:32.784Z,72.41
2018-03-06T23:19:00.388Z,72.58
2018-03-06T23:21:28.077Z,72.77
2018-03-06T23:23:55.737Z,72.37
2018-03-06T23:26:23.392Z,71.97
2018-03-06T23:28:51.014Z,71.80
2018-03-06T23:31:18.643Z,71.70
2018-03-06T23:33:46.248Z,71.58
2018-03-06T23:36:13.902Z,71.61
2018-03-06T23:38:41.521Z,71.54
2018-03-06T23:41:09.264Z,71.74
2018-03-06T23:43:36.872Z,71.73
2018-03-06T23:46:04.516Z,71.95
2018-03-06T23:48:32.151Z,71.86
2018-03-06T23:50:59.751Z,71.97
2018-03-06T23:53:27.375Z,72.17
2018-03-06T23:55:54.985Z,72.49
2018-03-06T23:58:22.713Z,72.61
